Time;durP1;ratioP1;P1;durP2;ratioP2;P2;SDS_P1;SDS_P2;PMS_P1;PMS_P2;Temp;Humidity;BMP_temperature;BMP_pressure;BME280_temperature;BME280_humidity;BME280_pressure;Samples;Min_cycle;Max_cycle;Signal;HPM_P1;HPM_P2
2023/07/30 00:02:25;;;;;;;1.73;1.60;;;;;;;21.28;79.11;95206.00;4917381;29;20205;-80
2023/07/30 00:04:51;;;;;;;1.50;1.40;;;;;;;21.19;79.43;95210.09;4918453;29;20207;-80
2023/07/30 00:07:18;;;;;;;1.77;1.50;;;;;;;21.18;79.78;95213.75;4906920;29;20206;-80
2023/07/30 00:09:45;;;;;;;3.97;1.70;;;;;;;21.15;80.53;95225.53;4907338;29;20231;-79
2023/07/30 00:12:12;;;;;;;1.73;1.63;;;;;;;21.13;81.23;95253.00;4905610;29;20237;-80
2023/07/30 00:14:38;;;;;;;1.33;1.23;;;;;;;21.11;81.34;95252.47;4904871;29;20215;-81
2023/07/30 00:17:05;;;;;;;1.50;1.40;;;;;;;21.08;81.67;95252.97;4903695;29;20215;-80
2023/07/30 00:19:32;;;;;;;1.75;1.40;;;;;;;21.07;81.50;95246.94;4922908;29;20229;-81
2023/07/30 00:21:58;;;;;;;2.08;1.40;;;;;;;21.03;81.46;95251.09;4924080;29;20679;-81
2023/07/30 00:24:24;;;;;;;2.25;1.45;;;;;;;21.05;81.17;95243.78;4923796;29;20214;-80
2023/07/30 00:26:52;;;;;;;1.38;1.27;;;;;;;21.02;81.73;95258.16;4922695;29;20885;-81
2023/07/30 00:29:19;;;;;;;1.75;1.40;;;;;;;20.96;82.03;95259.16;4924001;29;20236;-81
2023/07/30 00:31:45;;;;;;;1.40;1.30;;;;;;;20.98;82.19;95264.91;4923517;29;20270;-80
2023/07/30 00:34:12;;;;;;;2.75;1.30;;;;;;;20.95;82.17;95264.66;4919687;29;20696;-81
2023/07/30 00:36:38;;;;;;;1.40;1.30;;;;;;;20.94;82.59;95271.72;4920281;29;20218;-80
2023/07/30 00:39:05;;;;;;;1.60;1.50;;;;;;;20.98;82.53;95283.25;4903373;29;20226;-80
2023/07/30 00:41:31;;;;;;;1.45;1.30;;;;;;;20.99;82.89;95286.66;4885738;29;20211;-80
2023/07/30 00:43:59;;;;;;;1.80;1.60;;;;;;;20.96;83.13;95302.88;4886598;29;20215;-81
2023/07/30 00:46:25;;;;;;;1.95;1.50;;;;;;;20.91;83.47;95301.00;4905269;29;20222;-80
2023/07/30 00:48:52;;;;;;;1.67;1.58;;;;;;;20.83;84.01;95317.13;4904561;29;20238;-81
2023/07/30 00:51:20;;;;;;;1.50;1.40;;;;;;;20.86;84.28;95326.31;4919665;29;20218;-81
2023/07/30 00:53:47;;;;;;;1.60;1.50;;;;;;;20.84;84.76;95329.19;4923091;29;20233;-81
2023/07/30 00:56:14;;;;;;;1.55;1.45;;;;;;;20.86;85.07;95337.56;4923481;29;20591;-81
2023/07/30 00:58:41;;;;;;;1.50;1.40;;;;;;;20.84;84.55;95336.25;4921790;29;20221;-80
2023/07/30 01:01:09;;;;;;;1.60;1.50;;;;;;;20.84;84.70;95333.63;4907707;29;20214;-80
2023/07/30 01:03:35;;;;;;;2.90;1.40;;;;;;;20.86;84.27;95321.88;4907168;29;20203;-80
2023/07/30 01:06:02;;;;;;;2.42;1.50;;;;;;;20.86;84.32;95314.03;4911749;29;20210;-81
2023/07/30 01:08:28;;;;;;;1.95;1.83;;;;;;;20.84;84.50;95310.06;4927831;29;20241;-81
2023/07/30 01:10:55;;;;;;;1.85;1.50;;;;;;;20.87;84.66;95310.38;4927755;29;20206;-81
2023/07/30 01:13:22;;;;;;;1.60;1.50;;;;;;;20.88;84.28;95298.88;4924468;29;20229;-81
2023/07/30 01:15:50;;;;;;;1.85;1.52;;;;;;;20.88;84.10;95301.47;4908796;29;20206;-80
2023/07/30 01:18:17;;;;;;;2.17;1.42;;;;;;;20.85;84.13;95301.19;4908273;29;20234;-81
2023/07/30 01:20:44;;;;;;;1.70;1.60;;;;;;;20.85;84.68;95311.66;4908038;29;20674;-81
2023/07/30 01:23:12;;;;;;;1.70;1.60;;;;;;;20.82;84.99;95314.75;4920038;29;20206;-80
2023/07/30 01:25:39;;;;;;;1.73;1.42;;;;;;;20.79;85.42;95330.94;4927232;29;20205;-80
2023/07/30 01:28:09;;;;;;;1.60;1.50;;;;;;;20.78;85.56;95324.16;4927635;29;20237;-80
2023/07/30 01:30:41;;;;;;;1.58;1.48;;;;;;;20.78;85.56;95332.81;4928322;29;20749;-80
2023/07/30 01:33:08;;;;;;;3.17;1.60;;;;;;;20.79;85.54;95339.59;4922890;29;20223;-80
2023/07/30 01:35:37;;;;;;;1.83;1.73;;;;;;;20.77;85.65;95341.69;4892812;29;20239;-80
2023/07/30 01:38:05;;;;;;;3.05;1.50;;;;;;;20.76;85.91;95339.31;4894354;29;20230;-80
2023/07/30 01:40:33;;;;;;;1.70;1.60;;;;;;;20.74;86.22;95342.16;4926078;29;20210;-80
2023/07/30 01:42:59;;;;;;;1.77;1.67;;;;;;;20.74;85.79;95336.94;4927123;29;20370;-81
2023/07/30 01:45:26;;;;;;;1.55;1.45;;;;;;;20.74;85.65;95336.94;4915255;29;20199;-80
2023/07/30 01:47:53;;;;;;;1.70;1.55;;;;;;;20.73;85.62;95330.13;4907805;29;20686;-81
2023/07/30 01:50:19;;;;;;;1.77;1.67;;;;;;;20.73;85.50;95332.75;4907804;29;20226;-80
2023/07/30 01:52:46;;;;;;;1.42;1.30;;;;;;;20.59;86.43;95345.38;4907678;29;20226;-81
2023/07/30 01:55:12;;;;;;;1.55;1.45;;;;;;;20.62;86.23;95346.72;4915905;29;20210;-81
2023/07/30 01:57:40;;;;;;;1.60;1.50;;;;;;;20.64;86.11;95350.69;4925989;29;20230;-81
2023/07/30 02:00:08;;;;;;;1.60;1.50;;;;;;;20.58;86.08;95349.06;4910595;29;20668;-80
2023/07/30 02:02:35;;;;;;;1.70;1.60;;;;;;;20.46;85.52;95344.97;4906706;29;20289;-81
2023/07/30 02:05:01;;;;;;;4.50;1.73;;;;;;;20.49;85.96;95334.03;4907240;29;20870;-81
2023/07/30 02:07:28;;;;;;;1.60;1.50;;;;;;;20.54;85.80;95334.09;4906686;29;20207;-80
2023/07/30 02:09:54;;;;;;;1.90;1.80;;;;;;;20.52;85.45;95326.50;4905144;29;20283;-80
2023/07/30 02:12:21;;;;;;;1.67;1.40;;;;;;;20.50;85.40;95335.63;4925069;29;20662;-81
2023/07/30 02:14:48;;;;;;;1.60;1.50;;;;;;;20.47;85.56;95338.72;4911410;29;20211;-80
2023/07/30 02:17:15;;;;;;;2.08;1.77;;;;;;;20.40;85.08;95327.66;4905326;29;20267;-80
2023/07/30 02:19:42;;;;;;;2.92;1.70;;;;;;;20.44;85.35;95326.91;4905641;29;20290;-81
2023/07/30 02:22:09;;;;;;;1.95;1.50;;;;;;;20.44;84.94;95323.50;4905701;29;20219;-81
2023/07/30 02:24:35;;;;;;;1.77;1.67;;;;;;;20.44;85.01;95323.50;4905312;29;20207;-81
2023/07/30 02:27:01;;;;;;;1.98;1.75;;;;;;;20.48;84.92;95316.75;4911932;29;20217;-80
2023/07/30 02:29:28;;;;;;;2.03;1.67;;;;;;;20.44;84.88;95315.66;4919813;29;20230;-81
2023/07/30 02:31:56;;;;;;;1.80;1.70;;;;;;;20.40;85.22;95322.44;4897240;29;20207;-81
2023/07/30 02:34:22;;;;;;;2.03;1.73;;;;;;;20.48;85.30;95322.00;4886788;29;20227;-81
2023/07/30 02:36:50;;;;;;;2.13;1.90;;;;;;;20.47;86.11;95336.09;4885916;29;21174;-80
2023/07/30 02:39:16;;;;;;;2.10;1.80;;;;;;;20.53;86.37;95345.59;4887400;29;20231;-80
2023/07/30 02:41:42;;;;;;;3.05;1.80;;;;;;;20.55;86.64;95351.38;4887805;29;20236;-80
2023/07/30 02:44:09;;;;;;;1.92;1.80;;;;;;;20.50;86.16;95346.06;4916844;29;20202;-80
2023/07/30 02:46:35;;;;;;;2.08;1.67;;;;;;;20.53;86.88;95366.53;4924582;29;20213;-81
2023/07/30 02:49:03;;;;;;;4.57;2.45;;;;;;;20.55;90.28;95408.94;4924395;29;20222;-81
2023/07/30 02:51:29;;;;;;;2.80;2.50;;;;;;;20.57;91.91;95440.88;4923554;29;20261;-80
2023/07/30 02:53:58;;;;;;;2.80;2.10;;;;;;;20.44;94.12;95455.06;4921320;29;20257;-81
2023/07/30 02:56:25;;;;;;;3.13;1.92;;;;;;;20.32;94.89;95476.06;4923383;29;20234;-80
2023/07/30 02:58:51;;;;;;;2.30;2.10;;;;;;;20.35;95.44;95496.53;4919184;29;20237;-81
2023/07/30 03:01:18;;;;;;;2.60;2.10;;;;;;;20.35;99.08;95534.94;4922032;29;20213;-81
2023/07/30 03:03:44;;;;;;;2.33;2.13;;;;;;;20.42;97.46;95529.56;4921982;29;20203;-81
2023/07/30 03:06:12;;;;;;;2.75;2.20;;;;;;;20.31;100.00;95586.94;4903753;29;20206;-80
2023/07/30 03:08:38;;;;;;;4.28;2.33;;;;;;;20.31;100.00;95597.41;4902240;29;20226;-80
2023/07/30 03:11:05;;;;;;;2.22;2.03;;;;;;;20.32;100.00;95608.66;4902071;29;20215;-80
2023/07/30 03:13:31;;;;;;;4.25;2.28;;;;;;;20.21;100.00;95636.44;4901284;29;20227;-81
2023/07/30 03:15:58;;;;;;;2.85;2.22;;;;;;;20.19;100.00;95630.66;4912908;29;20213;-80
2023/07/30 03:18:24;;;;;;;2.40;2.20;;;;;;;20.21;100.00;95615.50;4920495;29;20619;-80
2023/07/30 03:20:50;;;;;;;2.50;2.30;;;;;;;20.16;100.00;95631.13;4920909;29;20214;-81
2023/07/30 03:23:18;;;;;;;2.35;2.15;;;;;;;20.12;100.00;95624.78;4916668;29;20617;-80
2023/07/30 03:25:45;;;;;;;2.58;2.38;;;;;;;20.15;100.00;95608.63;4911279;29;20211;-80
2023/07/30 03:28:11;;;;;;;3.95;2.40;;;;;;;20.12;100.00;95614.31;4895315;29;20222;-80
2023/07/30 03:30:37;;;;;;;3.88;2.08;;;;;;;20.13;100.00;95608.06;4880144;29;20222;-80
2023/07/30 03:33:06;;;;;;;2.20;2.00;;;;;;;20.13;100.00;95587.16;4912395;29;20230;-80
2023/07/30 03:35:33;;;;;;;2.63;2.25;;;;;;;20.11;100.00;95604.88;4916351;29;20213;-80
2023/07/30 03:37:59;;;;;;;3.28;2.20;;;;;;;20.12;100.00;95598.63;4914944;29;20217;-81
2023/07/30 03:40:27;;;;;;;2.35;2.15;;;;;;;20.15;100.00;95600.00;4916349;29;20213;-81
2023/07/30 03:42:54;;;;;;;5.60;2.40;;;;;;;20.16;100.00;95602.38;4916176;29;20888;-80
2023/07/30 03:45:21;;;;;;;2.60;2.40;;;;;;;20.12;100.00;95598.63;4906448;29;20213;-80
2023/07/30 03:47:47;;;;;;;2.65;2.22;;;;;;;20.04;100.00;95613.91;4906798;29;20218;-80
2023/07/30 03:50:13;;;;;;;2.30;2.10;;;;;;;20.02;100.00;95616.75;4917136;29;20221;-81
2023/07/30 03:52:40;;;;;;;2.95;2.25;;;;;;;20.05;100.00;95613.66;4915621;29;20687;-79
2023/07/30 03:55:07;;;;;;;5.35;2.30;;;;;;;20.01;100.00;95602.88;4916025;29;20226;-80
2023/07/30 03:57:35;;;;;;;2.75;2.20;;;;;;;19.96;100.00;95581.91;4915847;29;20210;-81
2023/07/30 04:00:02;;;;;;;2.30;2.03;;;;;;;19.97;100.00;95598.38;4900285;29;20641;-80
2023/07/30 04:02:29;;;;;;;2.05;1.90;;;;;;;20.00;100.00;95595.31;4896831;29;20258;-80
2023/07/30 04:04:55;;;;;;;3.45;2.10;;;;;;;20.00;100.00;95592.69;4905323;29;20262;-81
2023/07/30 04:07:22;;;;;;;2.13;2.03;;;;;;;20.05;100.00;95591.97;4915367;29;20210;-80
2023/07/30 04:09:48;;;;;;;2.42;2.17;;;;;;;20.06;100.00;95575.25;4915539;29;20723;-80
2023/07/30 04:12:14;;;;;;;2.30;2.10;;;;;;;20.08;100.00;95579.22;4902381;29;20207;-81
2023/07/30 04:14:42;;;;;;;2.63;2.42;;;;;;;20.11;100.00;95577.97;4895882;29;20231;-80
2023/07/30 04:17:09;;;;;;;2.53;2.33;;;;;;;20.11;100.00;95573.53;4896298;29;20794;-80
2023/07/30 04:19:35;;;;;;;2.28;2.08;;;;;;;20.09;100.00;95564.31;4900541;29;20229;-80
2023/07/30 04:22:01;;;;;;;2.78;2.35;;;;;;;20.14;100.00;95569.66;4910582;29;20270;-80
2023/07/30 04:24:28;;;;;;;2.60;2.40;;;;;;;20.14;100.00;95557.38;4893774;29;20259;-80
2023/07/30 04:26:54;;;;;;;3.33;2.15;;;;;;;20.18;100.00;95566.34;4878938;29;20204;-81
2023/07/30 04:29:20;;;;;;;2.53;2.10;;;;;;;20.14;100.00;95567.81;4882334;29;20655;-80
2023/07/30 04:31:48;;;;;;;2.30;2.10;;;;;;;20.20;99.73;95563.47;4881236;29;20255;-80
2023/07/30 04:34:15;;;;;;;1.80;1.70;;;;;;;20.25;100.00;95577.41;4881330;29;20238;-79
2023/07/30 04:36:41;;;;;;;2.42;2.22;;;;;;;20.27;100.00;95580.59;4906185;29;20217;-80
2023/07/30 04:39:08;;;;;;;8.68;2.30;;;;;;;20.29;100.00;95588.19;4918626;29;20234;-80
2023/07/30 04:41:34;;;;;;;2.20;2.00;;;;;;;20.21;99.04;95571.06;4919794;29;20209;-80
2023/07/30 04:44:01;;;;;;;1.90;1.80;;;;;;;20.18;98.48;95558.50;4919255;29;20294;-81
2023/07/30 04:46:27;;;;;;;2.05;1.85;;;;;;;20.29;98.15;95557.59;4903553;29;20614;-81
2023/07/30 04:48:55;;;;;;;2.67;2.10;;;;;;;20.38;97.32;95555.44;4900758;29;20230;-80
2023/07/30 04:51:21;;;;;;;2.22;2.03;;;;;;;20.40;96.63;95547.34;4900291;29;20219;-79
2023/07/30 04:53:48;;;;;;;2.20;2.00;;;;;;;20.29;95.32;95531.47;4919276;29;20241;-80
2023/07/30 04:56:14;;;;;;;2.00;1.80;;;;;;;20.21;96.00;95547.53;4920405;29;20210;-80
2023/07/30 04:58:41;;;;;;;2.10;1.90;;;;;;;20.20;96.55;95558.25;4915380;29;20227;-80
2023/07/30 05:01:07;;;;;;;2.40;2.08;;;;;;;20.24;97.35;95567.19;4900366;29;20207;-81
2023/07/30 05:03:33;;;;;;;2.10;1.98;;;;;;;20.26;96.69;95557.28;4902158;29;20209;-80
2023/07/30 05:06:01;;;;;;;2.47;2.28;;;;;;;20.27;95.58;95551.81;4903263;29;20207;-80
2023/07/30 05:08:27;;;;;;;2.25;1.90;;;;;;;20.33;95.54;95552.69;4906556;29;20230;-80
2023/07/30 05:10:54;;;;;;;2.22;1.92;;;;;;;20.34;95.12;95544.63;4916057;29;20203;-81
2023/07/30 05:13:20;;;;;;;2.75;2.00;;;;;;;20.41;95.01;95547.09;4899937;29;20207;-80
2023/07/30 05:15:47;;;;;;;1.95;1.85;;;;;;;20.43;95.15;95539.78;4899140;29;20266;-80
2023/07/30 05:18:14;;;;;;;2.78;1.70;;;;;;;20.40;93.56;95519.34;4899829;29;20230;-81
2023/07/30 05:20:40;;;;;;;1.90;1.80;;;;;;;20.37;93.60;95519.06;4894756;29;20230;-81
2023/07/30 05:23:08;;;;;;;2.25;2.10;;;;;;;20.35;93.08;95514.03;4884876;29;20305;-80
2023/07/30 05:25:34;;;;;;;2.40;2.10;;;;;;;20.45;93.08;95518.63;4916368;29;20230;-80
2023/07/30 05:28:01;;;;;;;1.98;1.88;;;;;;;20.54;93.48;95532.91;4919141;29;20221;-81
2023/07/30 05:30:27;;;;;;;2.35;1.60;;;;;;;20.61;93.36;95536.13;4918542;29;20206;-80
2023/07/30 05:32:54;;;;;;;2.08;1.85;;;;;;;20.69;93.15;95533.13;4918524;29;20221;-81
2023/07/30 05:35:23;;;;;;;3.38;1.92;;;;;;;20.78;92.49;95523.03;4918235;29;20308;-80
2023/07/30 05:37:50;;;;;;;2.15;1.95;;;;;;;20.73;91.59;95515.91;4916721;29;20293;-81
2023/07/30 05:40:17;;;;;;;4.47;1.83;;;;;;;20.72;90.89;95503.84;4914012;29;20206;-81
2023/07/30 05:42:44;;;;;;;1.90;1.80;;;;;;;20.79;90.94;95503.66;4917151;29;20202;-81
2023/07/30 05:45:11;;;;;;;2.15;1.98;;;;;;;20.83;91.11;95508.19;4907610;29;20583;-80
2023/07/30 05:47:37;;;;;;;1.85;1.75;;;;;;;20.96;90.42;95502.59;4899442;29;20217;-80
2023/07/30 05:50:04;;;;;;;1.88;1.77;;;;;;;20.93;89.21;95482.16;4898817;29;20235;-80
2023/07/30 05:52:31;;;;;;;2.90;1.92;;;;;;;21.02;87.86;95457.09;4899627;29;20214;-80
2023/07/30 05:54:57;;;;;;;3.17;2.10;;;;;;;20.99;87.17;95441.88;4898764;29;20227;-80
2023/07/30 05:57:25;;;;;;;2.20;2.00;;;;;;;21.10;86.95;95437.56;4910127;29;20210;-79
2023/07/30 05:59:51;;;;;;;1.77;1.67;;;;;;;21.17;87.56;95448.63;4910501;29;20230;-81
2023/07/30 06:02:18;;;;;;;2.00;1.90;;;;;;;21.17;87.28;95453.84;4907548;29;20242;-80
2023/07/30 06:04:44;;;;;;;1.98;1.63;;;;;;;21.24;86.49;95440.63;4899129;29;20576;-80
2023/07/30 06:07:11;;;;;;;2.03;1.92;;;;;;;21.19;84.62;95398.63;4900075;29;20622;-80
2023/07/30 06:09:37;;;;;;;2.30;2.10;;;;;;;21.21;85.27;95407.06;4899046;29;20612;-80
2023/07/30 06:12:04;;;;;;;2.47;1.80;;;;;;;21.30;85.47;95426.53;4898422;29;20287;-80
2023/07/30 06:14:32;;;;;;;1.90;1.80;;;;;;;21.23;83.90;95390.06;4912846;29;20226;-79
2023/07/30 06:16:58;;;;;;;1.80;1.70;;;;;;;21.26;84.35;95400.06;4897857;29;20203;-81
2023/07/30 06:19:26;;;;;;;2.13;1.92;;;;;;;21.37;83.72;95398.31;4887602;29;20283;-80
2023/07/30 06:21:52;;;;;;;1.98;1.88;;;;;;;21.34;83.58;95391.75;4882486;29;20203;-81
2023/07/30 06:24:19;;;;;;;1.90;1.75;;;;;;;21.43;83.77;95386.03;4882067;29;20210;-80
2023/07/30 06:26:45;;;;;;;2.63;1.70;;;;;;;21.43;82.82;95384.22;4883910;29;20200;-80
2023/07/30 06:29:12;;;;;;;1.60;1.50;;;;;;;21.38;82.92;95384.16;4902015;29;20231;-80
2023/07/30 06:31:39;;;;;;;1.85;1.75;;;;;;;21.36;82.16;95357.44;4920782;29;20218;-80
2023/07/30 06:34:06;;;;;;;2.00;1.90;;;;;;;21.42;81.86;95360.88;4921533;29;20615;-80
2023/07/30 06:36:32;;;;;;;2.45;1.80;;;;;;;21.48;81.61;95365.13;4918812;29;20258;-80
2023/07/30 06:38:59;;;;;;;4.10;3.70;;;;;;;21.49;82.30;95370.13;4920110;29;20298;-80
2023/07/30 06:41:26;;;;;;;4.43;4.13;;;;;;;21.52;81.54;95364.41;4922141;29;20213;-80
2023/07/30 06:43:52;;;;;;;3.10;2.10;;;;;;;21.61;81.01;95355.03;4921780;29;20202;-81
2023/07/30 06:46:19;;;;;;;1.83;1.73;;;;;;;21.56;79.87;95326.16;4918326;29;20207;-81
2023/07/30 06:48:46;;;;;;;2.13;1.50;;;;;;;21.62;78.58;95303.41;4923057;29;20230;-81
2023/07/30 06:51:13;;;;;;;1.88;1.77;;;;;;;21.66;79.69;95326.25;4922561;29;20209;-80
2023/07/30 06:53:40;;;;;;;2.22;1.75;;;;;;;21.73;78.37;95304.28;4923260;29;20241;-81
2023/07/30 06:56:06;;;;;;;1.80;1.70;;;;;;;21.70;78.22;95295.88;4923402;29;20226;-81
2023/07/30 06:58:33;;;;;;;2.83;1.65;;;;;;;21.74;78.91;95319.75;4921216;29;20223;-81
2023/07/30 07:00:59;;;;;;;1.80;1.70;;;;;;;21.74;76.80;95272.56;4908165;29;20839;-80
2023/07/30 07:03:25;;;;;;;1.80;1.70;;;;;;;21.76;77.83;95290.63;4923041;29;20269;-81
2023/07/30 07:05:57;;;;;;;1.80;1.70;;;;;;;21.87;77.31;95287.06;4911058;29;20700;-81
2023/07/30 07:08:23;;;;;;;1.70;1.60;;;;;;;21.93;77.32;95286.03;4905742;29;20223;-79
2023/07/30 07:10:50;;;;;;;2.28;1.90;;;;;;;22.03;77.73;95296.59;4905341;29;20210;-80
2023/07/30 07:13:17;;;;;;;3.05;1.90;;;;;;;22.07;77.05;95287.19;4892939;29;20282;-80
2023/07/30 07:15:52;;;;;;;2.00;1.80;;;;;;;22.09;76.57;95273.81;5138333;27;20537;-82
2023/07/30 07:18:18;;;;;;;1.88;1.60;;;;;;;22.10;75.84;95249.97;5140366;28;20285;-82
2023/07/30 07:20:45;;;;;;;1.83;1.73;;;;;;;22.15;75.34;95251.78;5139649;27;20197;-81
2023/07/30 07:23:11;;;;;;;1.90;1.80;;;;;;;22.24;74.64;95226.66;5137744;27;20679;-82
2023/07/30 07:25:38;;;;;;;1.88;1.77;;;;;;;22.38;75.06;95244.28;5140950;27;20195;-82
2023/07/30 07:28:05;;;;;;;2.22;1.77;;;;;;;22.52;74.41;95230.66;5138535;27;20199;-82
2023/07/30 07:30:31;;;;;;;1.80;1.70;;;;;;;22.73;75.17;95258.50;5139160;27;20199;-82
2023/07/30 07:32:59;;;;;;;3.08;2.88;;;;;;;22.75;74.11;95223.06;5136213;27;20786;-81
2023/07/30 07:35:25;;;;;;;2.90;2.70;;;;;;;22.82;72.43;95185.31;5138697;27;20222;-82
2023/07/30 07:37:52;;;;;;;2.00;1.90;;;;;;;22.69;72.00;95173.47;5136975;27;20230;-82
2023/07/30 07:40:18;;;;;;;3.70;2.00;;;;;;;22.64;72.50;95190.00;5140338;27;20203;-82
2023/07/30 07:42:44;;;;;;;2.38;1.65;;;;;;;22.69;70.93;95142.00;5137487;27;20202;-82
2023/07/30 07:45:11;;;;;;;2.00;1.80;;;;;;;22.77;71.24;95151.16;5138701;27;20198;-80
2023/07/30 07:47:37;;;;;;;1.98;1.73;;;;;;;22.71;70.91;95159.03;5137823;27;20230;-81
2023/07/30 07:50:06;;;;;;;1.70;1.60;;;;;;;22.69;71.30;95162.97;5135326;27;20222;-82
2023/07/30 07:52:33;;;;;;;2.22;2.08;;;;;;;22.69;71.95;95173.47;5136602;27;20207;-82
2023/07/30 07:54:59;;;;;;;2.15;1.80;;;;;;;22.70;70.51;95139.09;5137742;27;20219;-82
2023/07/30 07:57:26;;;;;;;1.77;1.67;;;;;;;22.72;69.14;95104.69;5136933;27;20207;-82
2023/07/30 07:59:52;;;;;;;1.67;1.50;;;;;;;22.72;68.74;95096.81;5137328;27;20264;-81
2023/07/30 08:02:18;;;;;;;2.00;1.80;;;;;;;22.65;68.50;95093.69;5137431;27;20202;-82
2023/07/30 08:04:45;;;;;;;1.83;1.60;;;;;;;22.68;69.25;95101.03;5134850;27;20190;-82
2023/07/30 08:07:13;;;;;;;2.17;1.85;;;;;;;22.67;70.15;95131.75;5132526;27;20204;-82
2023/07/30 08:09:39;;;;;;;2.10;1.90;;;;;;;22.51;68.52;95084.78;5122670;27;20222;-82
2023/07/30 08:12:06;;;;;;;2.33;2.13;;;;;;;22.37;69.00;95103.66;5114429;28;20214;-82
2023/07/30 08:14:32;;;;;;;1.88;1.55;;;;;;;22.35;69.20;95111.00;5114101;28;20219;-82
2023/07/30 08:16:59;;;;;;;2.80;1.70;;;;;;;22.52;69.16;95120.44;5114275;28;20222;-82
2023/07/30 08:19:26;;;;;;;1.70;1.60;;;;;;;22.57;68.41;95094.22;5114521;28;20226;-81
2023/07/30 08:21:52;;;;;;;1.80;1.70;;;;;;;22.60;67.55;95059.56;5121512;28;20219;-82
2023/07/30 08:24:20;;;;;;;1.70;1.60;;;;;;;22.64;66.97;95047.50;5135551;28;20229;-82
2023/07/30 08:26:47;;;;;;;1.17;1.17;;;;;;;22.87;66.37;95039.09;5124208;27;20196;-81
2023/07/30 08:29:13;;;;;;;1.88;1.77;;;;;;;23.32;65.96;95013.69;5121066;27;20380;-82
2023/07/30 08:31:40;;;;;;;2.28;1.55;;;;;;;23.70;65.59;95005.09;5121554;28;20199;-82
2023/07/30 08:34:06;;;;;;;1.45;1.35;;;;;;;23.90;62.74;94932.41;5121412;27;20223;-81
2023/07/30 08:36:33;;;;;;;1.55;1.45;;;;;;;23.81;62.23;94884.91;5120804;28;20207;-81
2023/07/30 08:38:59;;;;;;;1.67;1.50;;;;;;;23.56;62.28;94885.09;5117927;28;20584;-81
2023/07/30 08:41:27;;;;;;;1.70;1.60;;;;;;;23.85;62.74;94898.28;5121291;28;20196;-82
2023/07/30 08:43:53;;;;;;;2.15;1.60;;;;;;;23.97;61.50;94870.56;5121376;28;20207;-81
2023/07/30 08:46:20;;;;;;;1.52;1.42;;;;;;;23.65;60.85;94828.25;5099887;28;20657;-82
2023/07/30 08:48:46;;;;;;;1.88;1.77;;;;;;;23.41;60.04;94799.25;5100058;28;20216;-82
2023/07/30 08:51:14;;;;;;;2.72;2.53;;;;;;;23.66;60.70;94824.59;5099472;28;20200;-82
2023/07/30 08:53:41;;;;;;;2.38;2.20;;;;;;;23.93;60.61;94829.31;5103333;28;20216;-82
2023/07/30 08:56:09;;;;;;;2.20;1.48;;;;;;;24.14;58.95;94757.00;5119420;28;20219;-82
2023/07/30 08:58:38;;;;;;;1.63;1.52;;;;;;;24.45;59.16;94779.25;5121285;28;20212;-82
2023/07/30 09:01:10;;;;;;;1.77;1.42;;;;;;;24.64;57.82;94717.94;5121334;28;20237;-82
2023/07/30 09:03:39;;;;;;;1.63;1.52;;;;;;;24.72;57.59;94704.16;5121519;28;20211;-82
2023/07/30 09:06:06;;;;;;;1.77;1.67;;;;;;;25.10;58.81;94755.72;5108600;28;20235;-82
2023/07/30 09:08:32;;;;;;;1.98;1.70;;;;;;;25.23;56.21;94635.63;5117216;28;20269;-82
2023/07/30 09:11:07;;;;;;;1.70;1.60;;;;;;;25.25;54.20;94543.13;5113361;28;20207;-83
2023/07/30 09:13:39;;;;;;;2.00;1.80;;;;;;;25.31;54.56;94531.41;5118593;28;20207;-82
2023/07/30 09:16:10;;;;;;;1.63;1.52;;;;;;;25.48;54.43;94540.25;5120412;28;20251;-83
2023/07/30 09:18:40;;;;;;;1.67;1.55;;;;;;;25.64;53.64;94489.88;5121295;28;20272;-82
2023/07/30 09:21:06;;;;;;;2.78;1.48;;;;;;;25.59;54.53;94540.84;5122106;28;20238;-82
2023/07/30 09:23:33;;;;;;;1.65;1.55;;;;;;;25.78;55.23;94569.75;5119705;28;20203;-83
2023/07/30 09:25:59;;;;;;;2.85;1.60;;;;;;;25.90;52.97;94479.53;5116630;28;20191;-82
2023/07/30 09:28:31;;;;;;;1.92;1.40;;;;;;;26.19;52.06;94436.88;5118341;28;20761;-82
2023/07/30 09:31:02;;;;;;;1.50;1.40;;;;;;;26.14;52.16;94409.56;5119480;28;20204;-82
2023/07/30 09:33:28;;;;;;;1.77;1.67;;;;;;;26.05;52.02;94429.06;5120939;28;20245;-83
2023/07/30 09:35:55;;;;;;;1.65;1.52;;;;;;;25.92;52.28;94438.59;5122260;28;20724;-83
2023/07/30 09:38:22;;;;;;;1.67;1.58;;;;;;;26.34;52.61;94462.94;5120732;28;20219;-82
2023/07/30 09:40:49;;;;;;;4.18;3.88;;;;;;;26.34;50.72;94375.84;5122386;28;20245;-82
2023/07/30 09:43:16;;;;;;;2.88;2.67;;;;;;;26.47;49.58;94311.59;5119366;28;20683;-82
2023/07/30 09:45:46;;;;;;;1.60;1.50;;;;;;;26.49;49.76;94310.22;5120497;28;20199;-82
2023/07/30 09:48:14;;;;;;;1.60;1.50;;;;;;;26.47;50.74;94333.50;5121228;28;20250;-82
2023/07/30 09:50:42;;;;;;;1.85;1.65;;;;;;;26.28;51.48;94383.06;5121476;28;20192;-82
2023/07/30 09:53:10;;;;;;;1.60;1.50;;;;;;;26.62;50.85;94342.84;5121532;28;20206;-82
2023/07/30 09:55:36;;;;;;;1.52;1.40;;;;;;;26.76;50.67;94335.56;5120194;28;20245;-83
2023/07/30 09:58:03;;;;;;;2.10;1.60;;;;;;;26.55;49.99;94307.44;5119032;28;20226;-82
2023/07/30 10:00:30;;;;;;;2.03;1.80;;;;;;;26.55;51.04;94366.28;5120295;28;20210;-82
2023/07/30 10:02:59;;;;;;;1.70;1.60;;;;;;;26.54;50.69;94366.59;5121148;28;20202;-82
2023/07/30 10:05:33;;;;;;;1.83;1.70;;;;;;;26.69;50.59;94356.38;5121550;28;20196;-83
2023/07/30 10:08:12;;;;;;;1.50;1.40;;;;;;;26.33;50.99;94359.22;5099801;28;20196;-82
2023/07/30 10:10:38;;;;;;;2.30;1.50;;;;;;;25.83;50.92;94363.13;5101661;28;20196;-82
2023/07/30 10:13:09;;;;;;;1.58;1.48;;;;;;;25.47;52.10;94412.19;5100906;28;20203;-82
2023/07/30 10:15:35;;;;;;;1.45;1.35;;;;;;;25.23;52.35;94422.22;5114943;28;20215;-82
2023/07/30 10:18:02;;;;;;;1.60;1.50;;;;;;;24.83;53.27;94476.47;5119771;28;20195;-83
2023/07/30 10:20:31;;;;;;;1.42;1.33;;;;;;;24.28;54.72;94538.75;5120366;28;20203;-82
2023/07/30 10:22:59;;;;;;;1.20;1.10;;;;;;;24.19;55.25;94598.34;5121141;28;20648;-82
2023/07/30 10:25:30;;;;;;;1.70;1.60;;;;;;;24.26;55.77;94611.94;5120946;28;20216;-83
2023/07/30 10:27:56;;;;;;;2.20;1.33;;;;;;;24.65;55.19;94617.63;5119501;28;20219;-83
2023/07/30 10:30:22;;;;;;;1.38;1.27;;;;;;;24.82;55.23;94603.94;5118185;28;20218;-82
2023/07/30 10:33:00;;;;;;;1.70;1.60;;;;;;;24.83;54.97;94600.22;5120741;28;20617;-82
2023/07/30 10:35:39;;;;;;;1.48;1.38;;;;;;;25.20;56.50;94656.53;5120216;28;20249;-82
2023/07/30 10:38:20;;;;;;;2.35;1.67;;;;;;;25.39;53.66;94528.88;5118880;28;20199;-83
2023/07/30 10:41:11;;;;;;;1.85;1.50;;;;;;;25.31;52.77;94484.75;5119347;28;20230;-83
2023/07/30 10:43:41;;;;;;;1.48;1.38;;;;;;;25.43;53.07;94492.91;5104624;28;20214;-83
2023/07/30 10:46:08;;;;;;;1.55;1.45;;;;;;;25.47;53.25;94507.06;5118297;28;20358;-82
2023/07/30 10:48:35;;;;;;;1.98;1.88;;;;;;;25.19;52.68;94449.47;5119551;28;20306;-82
2023/07/30 10:51:06;;;;;;;2.45;2.25;;;;;;;24.84;53.41;94470.13;5120218;28;20199;-82
2023/07/30 10:53:36;;;;;;;2.05;1.85;;;;;;;24.76;54.43;94516.34;5119520;28;20195;-83
2023/07/30 10:56:05;;;;;;;1.70;1.60;;;;;;;24.78;54.78;94556.34;5119170;28;20707;-82
2023/07/30 10:58:32;;;;;;;1.60;1.50;;;;;;;24.72;55.67;94583.03;5111464;28;20215;-82
2023/07/30 11:00:59;;;;;;;1.70;1.60;;;;;;;24.97;55.49;94593.16;5120848;28;20191;-82
2023/07/30 11:03:27;;;;;;;1.80;1.60;;;;;;;24.96;53.56;94504.69;5118144;28;20206;-82
2023/07/30 11:05:56;;;;;;;1.80;1.70;;;;;;;25.03;52.42;94425.25;5115198;28;20192;-82
2023/07/30 11:08:33;;;;;;;1.45;1.33;;;;;;;24.97;51.56;94377.22;5100158;28;20220;-82
2023/07/30 11:11:00;;;;;;;1.80;1.70;;;;;;;24.97;51.86;94414.06;5100624;28;20196;-82
2023/07/30 11:13:27;;;;;;;1.60;1.50;;;;;;;24.93;51.49;94407.03;5102110;28;20382;-83
2023/07/30 11:15:53;;;;;;;1.50;1.40;;;;;;;24.92;52.19;94410.72;5100400;28;20227;-82
2023/07/30 11:18:20;;;;;;;1.40;1.30;;;;;;;24.96;51.65;94403.84;5099191;28;20216;-82
2023/07/30 11:20:46;;;;;;;4.32;3.08;;;;;;;25.18;51.85;94427.59;5119601;28;20202;-82
2023/07/30 11:23:20;;;;;;;2.38;2.15;;;;;;;25.42;51.63;94383.31;5122997;28;20196;-82
2023/07/30 11:25:49;;;;;;;1.52;1.42;;;;;;;25.42;51.84;94411.50;5121944;28;20203;-82
2023/07/30 11:28:27;;;;;;;1.33;1.10;;;;;;;25.33;51.34;94408.81;5120079;28;20222;-82
2023/07/30 11:30:53;;;;;;;2.25;1.60;;;;;;;25.30;52.40;94434.97;5120799;28;20289;-82
2023/07/30 11:33:20;;;;;;;1.65;1.33;;;;;;;25.19;52.22;94428.38;5118955;28;20207;-83